Startpagina
METAR-TAF:

METAR-TAF

Vliegvelden :

Trujillo, Peru

breedte: 08-06S, lengte: 079-02W, hoogte: 26 m

Actueel weer

Dit bericht is 44 minuten geleden gemaakt, om 05:00 UTC
Wind 5 kt uit het zuidoosten
Temperatuur 18°C
Vochtigheid 88%
Druk 1013 hPa
Zicht: 6000 m
Geheel bewolkt op 900 ft

METAR: SPRU 190500Z 14005KT 6000 OVC009 18/16 Q1013 RMK BR PP000

Tijdstip: 00:44 (05:44 UTC)

Verwachting

Dit bericht is 2 uur en het 44 minuten geleden gemaakt, om 03:00 UTC
Verwachting geldig van 19 om 03 UTC tot 19 om 24 UTC
Wind 6 kt uit het zuidzuidoosten
Zicht: 7000 m
Geheel bewolkt op 900 ft
Wijzigt naar
van 19 om 06 UTC tot 19 om 08 UTC
Zicht: 4500 m
nevel
Tijdelijke
van 19 om 10 UTC tot 19 om 13 UTC
Zicht: 2900 m
Geheel bewolkt op 300 ft
nevel
Wijzigt naar
van 19 om 15 UTC tot 19 om 17 UTC
Zicht: 7000 m
Geheel bewolkt op 1500 ft

TAF: SPRU 190300Z 1903/1924 15006KT 7000 OVC009 TX19/1919Z TN16/1911Z BECMG 1906/1908 4500 BR TEMPO 1910/1913 2900 BR OVC003 BECMG 1915/1917 7000 NSW OVC015

Waarnemingen en weersverwachtingen van meer dan 4000 vliegvelden (METAR en TAF).

De beschikbare stations zijn de gele en rode punten op de kaart.

Ga met uw muis naar het station om de naam te zien.

Klik dan om waarnemingen en weersverwachtingen te zien.

kaart wijzigen: klik op de groene knoppen met een zwart kruis om in te zoomen, op de groene knop met een streepje om uit te zoomen of op de groene pijlen voor aangrenzende kaarten.


METAR-TAF: